createdAt,value
2019-05-20T00:00:07.679Z,39.00
2019-05-20T00:02:36.564Z,43.27
2019-05-20T00:05:05.582Z,47.30
2019-05-20T00:07:34.416Z,44.07
2019-05-20T00:10:03.483Z,47.33
2019-05-20T00:12:32.243Z,46.67
2019-05-20T00:15:01.100Z,38.67
2019-05-20T00:17:29.966Z,36.60
2019-05-20T00:19:58.751Z,40.60
2019-05-20T00:22:27.595Z,40.07
2019-05-20T00:24:56.387Z,42.43
2019-05-20T00:27:25.348Z,40.33
2019-05-20T00:29:54.144Z,47.83
2019-05-20T00:32:22.911Z,40.03
2019-05-20T00:34:51.691Z,38.63
2019-05-20T00:37:20.502Z,37.17
2019-05-20T00:39:49.276Z,39.20
2019-05-20T00:42:18.062Z,41.63
2019-05-20T00:44:46.903Z,44.03
2019-05-20T00:47:15.838Z,46.70
2019-05-20T00:49:44.712Z,38.93
2019-05-20T00:52:13.545Z,41.80
2019-05-20T00:54:42.370Z,45.27
2019-05-20T00:57:11.225Z,48.27
2019-05-20T00:59:40.083Z,44.13
2019-05-20T01:02:08.927Z,49.83
2019-05-20T01:04:37.685Z,45.33
2019-05-20T01:07:06.613Z,47.97
2019-05-20T01:09:35.395Z,47.27
2019-05-20T01:12:04.287Z,42.47
2019-05-20T01:14:33.066Z,49.50
2019-05-20T01:17:02.055Z,51.80
2019-05-20T01:19:30.884Z,51.37
2019-05-20T01:21:59.756Z,51.00
2019-05-20T01:24:28.600Z,45.93
2019-05-20T01:26:57.733Z,45.43
2019-05-20T01:29:26.528Z,50.77
2019-05-20T01:31:55.370Z,50.17
2019-05-20T01:34:24.222Z,50.20
2019-05-20T01:36:53.075Z,45.53
2019-05-20T01:39:21.878Z,51.30
2019-05-20T01:41:50.694Z,49.87
2019-05-20T01:44:19.481Z,43.17
2019-05-20T01:46:48.264Z,45.23
2019-05-20T01:49:17.115Z,42.50
2019-05-20T01:51:45.979Z,45.80
2019-05-20T01:54:14.824Z,48.20
2019-05-20T01:56:43.630Z,47.20
2019-05-20T01:59:12.430Z,49.87
2019-05-20T02:01:41.255Z,48.30
2019-05-20T02:04:10.078Z,42.67
2019-05-20T02:06:38.891Z,45.07
2019-05-20T02:09:09.246Z,42.03
2019-05-20T02:11:38.164Z,48.73
2019-05-20T02:14:11.005Z,44.77
2019-05-20T02:16:39.893Z,46.87
2019-05-20T02:19:08.836Z,38.00
2019-05-20T02:21:37.654Z,43.37
2019-05-20T02:24:06.632Z,41.03
2019-05-20T02:26:35.637Z,39.97
2019-05-20T02:29:04.559Z,39.20
2019-05-20T02:31:33.342Z,42.67
2019-05-20T02:34:02.195Z,42.40
2019-05-20T02:36:30.949Z,40.50
2019-05-20T02:38:59.770Z,46.57
2019-05-20T02:41:28.528Z,42.43
2019-05-20T02:43:57.336Z,42.70
2019-05-20T02:46:26.285Z,43.80
2019-05-20T02:48:55.092Z,42.27
2019-05-20T02:51:33.143Z,41.50
2019-05-20T02:54:02.659Z,39.33
2019-05-20T02:56:32.317Z,47.17
2019-05-20T02:59:01.319Z,40.20
2019-05-20T03:01:30.186Z,41.90
2019-05-20T03:04:10.748Z,42.90
2019-05-20T03:06:29.444Z,43.43
2019-05-20T03:08:58.294Z,39.47
2019-05-20T03:11:27.176Z,43.83
2019-05-20T03:13:55.970Z,40.17
2019-05-20T03:16:24.791Z,41.13
2019-05-20T03:18:53.566Z,41.90
2019-05-20T03:21:22.372Z,38.13
2019-05-20T03:23:51.190Z,36.70
2019-05-20T03:26:20.095Z,38.10
2019-05-20T03:28:48.876Z,37.53
2019-05-20T03:31:17.629Z,35.63
2019-05-20T03:33:46.450Z,33.57
2019-05-20T03:36:15.243Z,35.83
2019-05-20T03:38:44.389Z,32.93
2019-05-20T03:41:13.168Z,36.07
2019-05-20T03:43:41.929Z,35.23
2019-05-20T03:46:10.683Z,35.27
2019-05-20T03:48:39.456Z,39.10
2019-05-20T03:51:08.277Z,34.23
2019-05-20T03:53:37.145Z,33.33
2019-05-20T03:56:06.003Z,35.83
2019-05-20T03:58:34.797Z,34.53
2019-05-20T04:01:03.645Z,30.73
2019-05-20T04:03:32.515Z,26.93
2019-05-20T04:06:01.269Z,25.10
2019-05-20T04:08:30.247Z,28.03
2019-05-20T04:10:59.191Z,25.53
2019-05-20T04:13:28.000Z,25.77
2019-05-20T04:15:57.090Z,27.77
2019-05-20T04:18:26.110Z,29.80
2019-05-20T04:20:55.096Z,25.93
2019-05-20T04:23:24.157Z,29.77
2019-05-20T04:25:52.928Z,30.47
2019-05-20T04:28:21.941Z,33.93
2019-05-20T04:30:50.761Z,32.83
2019-05-20T04:33:19.572Z,35.20
2019-05-20T04:35:49.734Z,35.57
2019-05-20T04:38:19.117Z,40.07
2019-05-20T04:40:48.032Z,36.10
2019-05-20T04:43:16.819Z,40.53
2019-05-20T04:45:46.274Z,44.80
2019-05-20T04:48:15.139Z,42.73
2019-05-20T04:50:43.921Z,52.63
2019-05-20T04:53:12.691Z,58.83
2019-05-20T04:55:41.456Z,61.83
2019-05-20T04:58:10.263Z,68.70
2019-05-20T05:00:54.762Z,64.60
2019-05-20T05:03:24.372Z,52.43
2019-05-20T05:05:53.312Z,56.47
2019-05-20T05:08:22.322Z,56.90
2019-05-20T05:10:51.341Z,55.50
2019-05-20T05:13:21.405Z,53.27
2019-05-20T05:15:50.172Z,61.47
2019-05-20T05:18:19.116Z,55.10
2019-05-20T05:20:48.193Z,54.63
2019-05-20T05:23:17.508Z,47.70
2019-05-20T05:25:46.708Z,43.83
2019-05-20T05:28:15.652Z,48.37
2019-05-20T05:30:45.982Z,44.67
2019-05-20T05:33:14.880Z,43.93
2019-05-20T05:35:52.921Z,46.67
2019-05-20T05:38:15.608Z,48.90
2019-05-20T05:40:44.469Z,44.13
2019-05-20T05:43:13.331Z,41.80
2019-05-20T05:45:42.080Z,42.57
2019-05-20T05:48:11.006Z,41.43
2019-05-20T05:50:39.836Z,43.10
2019-05-20T05:53:08.679Z,40.83
2019-05-20T05:55:37.515Z,38.27
2019-05-20T05:58:08.565Z,39.37
2019-05-20T06:00:36.965Z,33.90
2019-05-20T06:03:05.815Z,37.67
2019-05-20T06:05:34.645Z,31.97
2019-05-20T06:08:03.421Z,36.67
2019-05-20T06:10:35.560Z,31.30
2019-05-20T06:13:03.097Z,30.73
2019-05-20T06:15:31.991Z,26.40
2019-05-20T06:18:00.738Z,27.27
2019-05-20T06:20:29.622Z,29.47
2019-05-20T06:22:58.452Z,32.27
2019-05-20T06:25:27.334Z,33.13
2019-05-20T06:27:56.165Z,29.20
2019-05-20T06:30:37.355Z,31.40
2019-05-20T06:33:06.179Z,26.73
2019-05-20T06:35:35.130Z,31.50
2019-05-20T06:38:06.192Z,28.97
2019-05-20T06:40:35.084Z,27.30
2019-05-20T06:43:03.880Z,27.43
2019-05-20T06:45:32.811Z,23.73
2019-05-20T06:48:01.620Z,23.10
2019-05-20T06:50:30.511Z,22.87
2019-05-20T06:52:59.466Z,24.27
2019-05-20T06:55:28.283Z,23.53
2019-05-20T06:57:57.083Z,20.47
2019-05-20T07:00:34.515Z,22.53
2019-05-20T07:03:03.483Z,22.07
2019-05-20T07:05:32.385Z,25.13
2019-05-20T07:08:01.572Z,20.33
2019-05-20T07:10:30.572Z,23.33
2019-05-20T07:12:59.331Z,23.50
2019-05-20T07:15:28.183Z,24.57
2019-05-20T07:17:57.086Z,23.70
2019-05-20T07:20:25.923Z,24.83
2019-05-20T07:22:56.377Z,21.47
2019-05-20T07:25:25.364Z,21.10
2019-05-20T07:27:54.233Z,16.27
2019-05-20T07:30:23.720Z,16.97
2019-05-20T07:32:52.520Z,19.63
2019-05-20T07:35:30.209Z,18.70
2019-05-20T07:37:51.906Z,19.83
2019-05-20T07:40:30.903Z,18.33
2019-05-20T07:42:59.867Z,16.00
2019-05-20T07:45:30.229Z,16.57
2019-05-20T07:47:59.596Z,15.40
2019-05-20T07:50:29.702Z,16.83
2019-05-20T07:53:00.637Z,16.43
2019-05-20T07:55:32.560Z,15.90
2019-05-20T07:58:05.725Z,17.17
2019-05-20T08:00:34.608Z,17.43
2019-05-20T08:03:03.575Z,18.10
2019-05-20T08:05:32.327Z,18.77
2019-05-20T08:08:01.303Z,19.30
2019-05-20T08:10:30.473Z,16.07
2019-05-20T08:12:59.551Z,16.73
2019-05-20T08:15:28.363Z,15.97
2019-05-20T08:17:57.319Z,15.57
2019-05-20T08:20:26.223Z,16.33
2019-05-20T08:22:55.151Z,16.23
2019-05-20T08:25:24.093Z,18.97
2019-05-20T08:27:52.863Z,16.87
2019-05-20T08:30:31.745Z,14.90
2019-05-20T08:33:00.484Z,17.43
2019-05-20T08:35:29.276Z,15.97
2019-05-20T08:37:58.217Z,15.17
2019-05-20T08:40:27.116Z,14.30
2019-05-20T08:42:55.895Z,15.33
2019-05-20T08:45:24.758Z,18.17
2019-05-20T08:47:53.585Z,18.57
2019-05-20T08:50:22.503Z,21.37
2019-05-20T08:52:51.340Z,21.57
2019-05-20T08:55:20.199Z,19.80
2019-05-20T08:57:49.027Z,22.90
2019-05-20T09:00:24.084Z,18.77
2019-05-20T09:02:52.893Z,19.00
2019-05-20T09:05:21.660Z,20.37
2019-05-20T09:08:02.499Z,20.37
2019-05-20T09:10:21.013Z,19.50
2019-05-20T09:12:49.779Z,21.53
2019-05-20T09:15:19.117Z,22.57
2019-05-20T09:17:47.847Z,19.80
2019-05-20T09:20:16.882Z,19.50
2019-05-20T09:22:45.661Z,20.77
2019-05-20T09:25:15.492Z,16.27
2019-05-20T09:27:44.253Z,15.13
2019-05-20T09:30:13.755Z,17.27
2019-05-20T09:32:43.353Z,14.80
2019-05-20T09:35:12.609Z,16.23
2019-05-20T09:37:41.434Z,14.90
2019-05-20T09:40:10.966Z,15.23
2019-05-20T09:42:41.121Z,13.50
2019-05-20T09:45:10.415Z,13.80
2019-05-20T09:47:39.301Z,14.10
2019-05-20T09:50:08.348Z,13.30
2019-05-20T09:52:39.450Z,11.90
2019-05-20T09:55:08.403Z,10.70
2019-05-20T09:57:37.243Z,12.57
2019-05-20T10:00:07.226Z,14.40
2019-05-20T10:02:38.241Z,13.57
2019-05-20T10:05:06.968Z,14.13
2019-05-20T10:07:35.790Z,14.57
2019-05-20T10:10:04.809Z,15.03
2019-05-20T10:12:45.598Z,14.60
2019-05-20T10:15:04.559Z,17.80
2019-05-20T10:17:33.325Z,17.48
2019-05-20T10:20:02.212Z,17.27
2019-05-20T10:22:31.045Z,20.13
2019-05-20T10:24:59.944Z,18.92
2019-05-20T10:27:28.713Z,18.70
2019-05-20T10:29:57.565Z,20.62
2019-05-20T10:32:26.402Z,19.50
2019-05-20T10:34:55.171Z,23.63
2019-05-20T10:37:24.073Z,24.63
2019-05-20T10:39:52.913Z,20.20
2019-05-20T10:42:21.684Z,24.32
2019-05-20T10:44:50.721Z,22.87
2019-05-20T10:47:19.582Z,25.00
2019-05-20T10:49:49.082Z,21.97
2019-05-20T10:52:18.100Z,22.80
2019-05-20T10:54:46.879Z,24.50
2019-05-20T10:57:15.652Z,24.47
2019-05-20T10:59:44.418Z,22.50
2019-05-20T11:02:13.427Z,24.07
2019-05-20T11:04:42.202Z,23.87
2019-05-20T11:07:11.241Z,24.65
2019-05-20T11:09:40.045Z,24.87
2019-05-20T11:12:08.848Z,24.45
2019-05-20T11:14:37.598Z,24.82
2019-05-20T11:17:06.697Z,24.83
2019-05-20T11:19:35.528Z,23.23
2019-05-20T11:22:04.472Z,24.37
2019-05-20T11:24:33.140Z,25.60
2019-05-20T11:27:01.930Z,26.97
2019-05-20T11:29:30.704Z,25.10
2019-05-20T11:31:59.525Z,25.17
2019-05-20T11:34:28.287Z,26.25
2019-05-20T11:36:57.097Z,25.75
2019-05-20T11:39:33.392Z,27.83
2019-05-20T11:41:56.484Z,28.00
2019-05-20T11:44:25.281Z,31.20
2019-05-20T11:46:54.071Z,28.17
2019-05-20T11:49:23.105Z,29.85
2019-05-20T11:51:51.895Z,28.77
2019-05-20T11:54:20.750Z,27.70
2019-05-20T11:56:49.595Z,32.97
2019-05-20T11:59:19.197Z,31.77
2019-05-20T12:01:48.108Z,28.20
2019-05-20T12:04:16.976Z,31.77
2019-05-20T12:06:45.765Z,30.65
2019-05-20T12:09:14.808Z,32.15
2019-05-20T12:11:43.578Z,28.85
2019-05-20T12:14:12.412Z,30.33
2019-05-20T12:16:41.280Z,27.60
2019-05-20T12:19:10.178Z,27.77
2019-05-20T12:21:38.968Z,27.27
2019-05-20T12:24:07.742Z,27.98
2019-05-20T12:26:36.787Z,31.00
2019-05-20T12:29:05.693Z,34.27
2019-05-20T12:31:34.450Z,32.97
2019-05-20T12:34:03.305Z,32.47
2019-05-20T12:36:32.077Z,32.77
2019-05-20T12:39:00.893Z,31.42
2019-05-20T12:41:29.843Z,28.20
2019-05-20T12:44:11.064Z,36.98
2019-05-20T12:46:29.248Z,31.40
2019-05-20T12:48:58.122Z,33.55
2019-05-20T12:51:26.919Z,30.77
2019-05-20T12:53:55.699Z,31.77
2019-05-20T12:56:24.575Z,31.85
2019-05-20T12:58:53.683Z,28.97
2019-05-20T13:01:22.558Z,28.73
2019-05-20T13:03:51.492Z,27.30
2019-05-20T13:06:20.308Z,27.60
2019-05-20T13:08:49.082Z,28.13
2019-05-20T13:11:17.971Z,26.60
2019-05-20T13:13:46.796Z,25.90
2019-05-20T13:16:15.575Z,25.10
2019-05-20T13:18:55.346Z,28.38
2019-05-20T13:21:14.797Z,28.12
2019-05-20T13:23:43.578Z,33.45
2019-05-20T13:26:12.407Z,33.92
2019-05-20T13:28:41.186Z,27.02
2019-05-20T13:31:10.101Z,26.85
2019-05-20T13:33:38.872Z,27.50
2019-05-20T13:36:07.703Z,27.98
2019-05-20T13:38:36.459Z,30.77
2019-05-20T13:41:05.271Z,29.13
2019-05-20T13:43:34.099Z,31.75
2019-05-20T13:46:02.867Z,32.28
2019-05-20T13:48:31.894Z,32.00
2019-05-20T13:51:00.750Z,32.78
2019-05-20T13:53:29.522Z,34.10
2019-05-20T13:55:58.274Z,35.23
2019-05-20T13:58:27.056Z,40.17
2019-05-20T14:00:55.810Z,35.10
2019-05-20T14:03:24.639Z,31.20
2019-05-20T14:05:53.419Z,39.13
2019-05-20T14:08:22.515Z,36.53
2019-05-20T14:11:03.843Z,35.50
2019-05-20T14:13:21.843Z,36.43
2019-05-20T14:15:50.623Z,42.27
2019-05-20T14:18:19.372Z,40.73
2019-05-20T14:20:48.177Z,38.60
2019-05-20T14:23:16.942Z,39.73
2019-05-20T14:25:46.247Z,43.80
2019-05-20T14:28:15.028Z,52.03
2019-05-20T14:30:43.849Z,47.10
2019-05-20T14:33:12.628Z,60.78
2019-05-20T14:35:41.481Z,49.50
2019-05-20T14:38:10.227Z,47.35
2019-05-20T14:40:39.034Z,49.13
2019-05-20T14:43:07.873Z,51.93
2019-05-20T14:45:36.664Z,52.83
2019-05-20T14:48:05.694Z,53.43
2019-05-20T14:50:34.519Z,50.67
2019-05-20T14:53:03.335Z,51.63
2019-05-20T14:55:41.780Z,50.83
2019-05-20T14:58:02.651Z,44.65
2019-05-20T15:00:31.538Z,52.03
2019-05-20T15:03:00.290Z,43.87
2019-05-20T15:05:29.133Z,43.45
2019-05-20T15:07:58.117Z,45.07
2019-05-20T15:10:26.921Z,38.67
2019-05-20T15:12:55.761Z,33.87
2019-05-20T15:15:24.718Z,40.63
2019-05-20T15:17:53.734Z,42.70
2019-05-20T15:20:22.520Z,33.97
2019-05-20T15:22:51.399Z,38.03
2019-05-20T15:25:20.215Z,32.00
2019-05-20T15:27:49.956Z,32.63
2019-05-20T15:30:19.246Z,27.33
2019-05-20T15:32:48.025Z,24.67
2019-05-20T15:35:16.914Z,24.37
2019-05-20T15:37:46.253Z,25.57
2019-05-20T15:40:15.177Z,21.13
2019-05-20T15:42:43.925Z,20.27
2019-05-20T15:45:13.029Z,21.50
2019-05-20T15:47:41.850Z,21.27
2019-05-20T15:50:11.019Z,23.65
2019-05-20T15:52:40.070Z,21.87
2019-05-20T15:55:08.954Z,22.97
2019-05-20T15:57:37.764Z,20.33
2019-05-20T16:00:08.592Z,26.00
2019-05-20T16:02:37.719Z,25.25
2019-05-20T16:05:06.991Z,24.02
2019-05-20T16:07:36.002Z,23.12
2019-05-20T16:10:06.258Z,25.17
2019-05-20T16:12:35.343Z,21.80
2019-05-20T16:15:05.123Z,21.87
2019-05-20T16:17:33.933Z,22.97
2019-05-20T16:20:02.738Z,23.37
2019-05-20T16:22:31.494Z,23.37
2019-05-20T16:25:00.337Z,25.83
2019-05-20T16:27:32.714Z,25.03
2019-05-20T16:30:06.222Z,21.67
2019-05-20T16:32:30.997Z,20.03
2019-05-20T16:35:00.061Z,23.77
2019-05-20T16:37:28.868Z,24.00
2019-05-20T16:39:57.864Z,23.27
2019-05-20T16:42:27.002Z,24.17
2019-05-20T16:44:56.021Z,30.23
2019-05-20T16:47:24.931Z,26.23
2019-05-20T16:49:53.972Z,25.87
2019-05-20T16:52:23.079Z,27.37
2019-05-20T16:54:51.916Z,24.57
2019-05-20T16:57:20.978Z,26.23
2019-05-20T16:59:49.961Z,22.60
2019-05-20T17:02:18.936Z,25.12
2019-05-20T17:04:47.981Z,24.40
2019-05-20T17:07:16.823Z,26.37
2019-05-20T17:09:45.740Z,26.83
2019-05-20T17:12:14.630Z,30.40
2019-05-20T17:14:44.039Z,26.40
2019-05-20T17:17:12.806Z,28.20
2019-05-20T17:19:41.848Z,26.13
2019-05-20T17:22:11.034Z,27.10
2019-05-20T17:24:39.808Z,26.17
2019-05-20T17:27:08.638Z,27.30
2019-05-20T17:29:37.474Z,25.47
2019-05-20T17:32:06.420Z,24.53
2019-05-20T17:34:35.181Z,26.87
2019-05-20T17:37:04.338Z,37.40
2019-05-20T17:39:33.275Z,28.07
2019-05-20T17:42:02.113Z,28.70
2019-05-20T17:44:32.290Z,28.67
2019-05-20T17:47:01.257Z,27.47
2019-05-20T17:49:30.064Z,31.63
2019-05-20T17:51:58.994Z,28.43
2019-05-20T17:54:27.876Z,27.43
2019-05-20T17:56:56.727Z,23.33
2019-05-20T17:59:26.629Z,23.17
2019-05-20T18:01:55.353Z,26.73
2019-05-20T18:04:24.299Z,23.47
2019-05-20T18:06:53.238Z,21.00
2019-05-20T18:09:23.469Z,23.80
2019-05-20T18:11:52.386Z,20.80
2019-05-20T18:14:27.103Z,20.97
2019-05-20T18:16:56.039Z,24.80
2019-05-20T18:19:52.303Z,22.47
2019-05-20T18:22:37.557Z,23.73
2019-05-20T18:25:12.721Z,25.37
2019-05-20T18:27:45.375Z,23.03
2019-05-20T18:30:20.598Z,29.43
2019-05-20T18:32:52.024Z,24.87
2019-05-20T18:35:20.930Z,24.83
2019-05-20T18:37:49.850Z,21.70
2019-05-20T18:40:18.695Z,26.97
2019-05-20T18:42:56.731Z,27.17
2019-05-20T18:45:28.488Z,30.03
2019-05-20T18:47:58.684Z,30.40
2019-05-20T18:50:27.649Z,34.43
2019-05-20T18:52:56.707Z,28.90
2019-05-20T18:55:25.603Z,28.00
2019-05-20T18:57:54.531Z,25.77
2019-05-20T19:00:24.266Z,33.43
2019-05-20T19:02:53.066Z,29.33
2019-05-20T19:05:22.256Z,26.87
2019-05-20T19:07:51.321Z,31.67
2019-05-20T19:10:20.341Z,33.80
2019-05-20T19:12:49.137Z,31.47
2019-05-20T19:15:18.850Z,34.63
2019-05-20T19:17:47.707Z,38.80
2019-05-20T19:20:16.646Z,36.33
2019-05-20T19:22:45.498Z,35.53
2019-05-20T19:25:14.379Z,34.60
2019-05-20T19:27:43.777Z,39.83
2019-05-20T19:30:13.041Z,34.87
2019-05-20T19:32:42.237Z,36.93
2019-05-20T19:35:11.427Z,35.43
2019-05-20T19:37:41.102Z,34.67
2019-05-20T19:40:10.697Z,33.40
2019-05-20T19:42:39.733Z,39.30
2019-05-20T19:45:09.308Z,41.67
2019-05-20T19:47:38.732Z,34.90
2019-05-20T19:50:07.996Z,37.63
2019-05-20T19:52:37.144Z,41.67
2019-05-20T19:55:06.626Z,46.63
2019-05-20T19:57:36.026Z,45.20
2019-05-20T20:00:05.566Z,42.67
2019-05-20T20:02:34.921Z,43.70
2019-05-20T20:05:04.624Z,46.30
2019-05-20T20:07:33.624Z,44.80
2019-05-20T20:10:02.540Z,47.47
2019-05-20T20:12:31.453Z,47.77
2019-05-20T20:15:03.937Z,56.53
2019-05-20T20:17:32.795Z,51.50
2019-05-20T20:20:01.728Z,48.00
2019-05-20T20:22:30.629Z,51.70
2019-05-20T20:24:59.718Z,59.40
2019-05-20T20:27:28.697Z,60.03
2019-05-20T20:29:57.624Z,61.90
2019-05-20T20:32:37.582Z,55.03
2019-05-20T20:34:57.113Z,53.67
2019-05-20T20:37:25.856Z,56.40
2019-05-20T20:39:54.795Z,57.80
2019-05-20T20:42:24.007Z,68.27
2019-05-20T20:44:52.908Z,64.53
2019-05-20T20:47:21.794Z,65.80
2019-05-20T20:49:50.603Z,77.67
2019-05-20T20:52:19.444Z,67.83
2019-05-20T20:54:48.283Z,75.40
2019-05-20T20:57:17.119Z,72.10
2019-05-20T20:59:45.982Z,72.57
2019-05-20T21:02:14.857Z,69.77
2019-05-20T21:04:43.676Z,71.43
2019-05-20T21:07:12.795Z,64.23
2019-05-20T21:09:41.817Z,56.40
2019-05-20T21:12:10.701Z,63.07
2019-05-20T21:14:39.613Z,59.20
2019-05-20T21:17:09.391Z,56.43
2019-05-20T21:19:38.213Z,61.23
2019-05-20T21:22:07.821Z,68.03
2019-05-20T21:24:36.688Z,66.13
2019-05-20T21:27:05.753Z,61.47
2019-05-20T21:29:34.531Z,76.90
2019-05-20T21:32:03.374Z,74.33
2019-05-20T21:34:32.240Z,70.83
2019-05-20T21:37:01.144Z,80.00
2019-05-20T21:39:29.988Z,70.70
2019-05-20T21:41:58.833Z,81.17
2019-05-20T21:44:27.667Z,67.77
2019-05-20T21:46:56.844Z,69.03
2019-05-20T21:49:25.627Z,82.70
2019-05-20T21:51:57.311Z,81.83
2019-05-20T21:54:26.178Z,60.30
2019-05-20T21:56:54.967Z,61.13
2019-05-20T21:59:23.756Z,64.23
2019-05-20T22:01:52.595Z,49.03
2019-05-20T22:04:21.468Z,48.87
2019-05-20T22:06:50.466Z,48.27
2019-05-20T22:09:19.338Z,49.73
2019-05-20T22:11:48.220Z,53.20
2019-05-20T22:14:17.009Z,56.63
2019-05-20T22:16:45.865Z,63.03
2019-05-20T22:19:14.708Z,51.83
2019-05-20T22:21:55.776Z,54.80
2019-05-20T22:24:24.796Z,54.93
2019-05-20T22:26:53.620Z,52.23
2019-05-20T22:29:22.588Z,58.50
2019-05-20T22:31:51.670Z,47.00
2019-05-20T22:34:20.512Z,52.57
2019-05-20T22:36:49.525Z,46.97
2019-05-20T22:39:18.532Z,47.53
2019-05-20T22:41:47.350Z,50.10
2019-05-20T22:44:16.304Z,36.53
2019-05-20T22:46:45.113Z,37.23
2019-05-20T22:49:13.966Z,31.67
2019-05-20T22:51:42.814Z,35.40
2019-05-20T22:54:11.777Z,39.67
2019-05-20T22:56:40.739Z,32.80
2019-05-20T22:59:09.641Z,33.60
2019-05-20T23:01:38.560Z,33.60
2019-05-20T23:04:07.356Z,36.53
2019-05-20T23:06:36.210Z,34.37
2019-05-20T23:09:06.287Z,32.43
2019-05-20T23:11:35.242Z,31.87
2019-05-20T23:14:04.095Z,28.53
2019-05-20T23:16:32.940Z,31.57
2019-05-20T23:19:01.814Z,32.20
2019-05-20T23:21:30.692Z,30.97
2019-05-20T23:23:59.670Z,29.30
2019-05-20T23:26:28.604Z,31.37
2019-05-20T23:28:57.488Z,26.50
2019-05-20T23:31:26.675Z,28.70
2019-05-20T23:34:10.294Z,29.47
2019-05-20T23:36:26.238Z,24.63
2019-05-20T23:38:55.129Z,22.73
2019-05-20T23:41:26.178Z,25.90
2019-05-20T23:43:55.143Z,25.63
2019-05-20T23:46:24.228Z,26.43
2019-05-20T23:48:53.087Z,24.93
2019-05-20T23:51:21.894Z,21.10
2019-05-20T23:53:50.698Z,24.83
2019-05-20T23:56:19.585Z,20.43
2019-05-20T23:58:48.468Z,21.77
